sensor_id;sensor_type;location;lat;lon;timestamp;pressure;altitude;pressure_sealevel;temperature;humidity
42603;BME280;28233;55.748;48.752;2023-02-22T00:01:07;97002.91;;;-11.21;85.79
42603;BME280;28233;55.748;48.752;2023-02-22T00:03:26;97003.94;;;-11.22;85.70
42603;BME280;28233;55.748;48.752;2023-02-22T00:05:29;97002.84;;;-11.26;85.71
42603;BME280;28233;55.748;48.752;2023-02-22T00:07:32;97001.16;;;-11.32;85.46
42603;BME280;28233;55.748;48.752;2023-02-22T00:09:35;97001.06;;;-11.37;85.13
42603;BME280;28233;55.748;48.752;2023-02-22T00:11:37;97001.25;;;-11.44;85.27
42603;BME280;28233;55.748;48.752;2023-02-22T00:13:40;97003.47;;;-11.53;85.23
42603;BME280;28233;55.748;48.752;2023-02-22T00:15:46;97010.78;;;-11.60;85.05
42603;BME280;28233;55.748;48.752;2023-02-22T00:17:48;97008.28;;;-11.66;85.30
42603;BME280;28233;55.748;48.752;2023-02-22T00:19:51;97016.97;;;-11.71;84.99
42603;BME280;28233;55.748;48.752;2023-02-22T00:21:53;97017.16;;;-11.78;85.30
42603;BME280;28233;55.748;48.752;2023-02-22T00:23:56;97021.81;;;-11.85;84.77
42603;BME280;28233;55.748;48.752;2023-02-22T00:25:59;97022.78;;;-11.91;84.84
42603;BME280;28233;55.748;48.752;2023-02-22T00:28:02;97004.06;;;-12.01;84.84
42603;BME280;28233;55.748;48.752;2023-02-22T00:30:06;97008.53;;;-12.02;85.35
42603;BME280;28233;55.748;48.752;2023-02-22T00:32:11;97013.31;;;-12.04;85.71
42603;BME280;28233;55.748;48.752;2023-02-22T00:34:13;97017.19;;;-12.06;85.91
42603;BME280;28233;55.748;48.752;2023-02-22T00:36:16;97008.25;;;-12.05;86.35
42603;BME280;28233;55.748;48.752;2023-02-22T00:38:19;97007.19;;;-12.04;86.33
42603;BME280;28233;55.748;48.752;2023-02-22T00:40:27;97007.75;;;-12.02;86.64
42603;BME280;28233;55.748;48.752;2023-02-22T00:42:31;97015.19;;;-11.99;86.90
42603;BME280;28233;55.748;48.752;2023-02-22T00:44:34;97014.19;;;-11.98;87.38
42603;BME280;28233;55.748;48.752;2023-02-22T00:46:36;97007.84;;;-11.97;86.59
42603;BME280;28233;55.748;48.752;2023-02-22T00:48:39;97013.69;;;-11.95;86.83
42603;BME280;28233;55.748;48.752;2023-02-22T00:50:42;97011.03;;;-11.95;87.04
42603;BME280;28233;55.748;48.752;2023-02-22T00:52:44;97021.72;;;-11.90;87.28
42603;BME280;28233;55.748;48.752;2023-02-22T00:54:47;97020.44;;;-11.87;87.19
42603;BME280;28233;55.748;48.752;2023-02-22T00:56:49;97012.50;;;-11.87;87.19
42603;BME280;28233;55.748;48.752;2023-02-22T00:58:52;97009.59;;;-11.86;86.75
42603;BME280;28233;55.748;48.752;2023-02-22T01:00:54;97008.78;;;-11.86;86.88
42603;BME280;28233;55.748;48.752;2023-02-22T01:02:57;97011.69;;;-11.88;86.84
42603;BME280;28233;55.748;48.752;2023-02-22T01:05:00;97015.88;;;-11.92;86.61
42603;BME280;28233;55.748;48.752;2023-02-22T01:07:04;97011.53;;;-11.98;86.17
42603;BME280;28233;55.748;48.752;2023-02-22T01:09:07;97007.53;;;-12.01;86.57
42603;BME280;28233;55.748;48.752;2023-02-22T01:11:10;97001.88;;;-12.04;86.22
42603;BME280;28233;55.748;48.752;2023-02-22T01:13:12;97008.47;;;-12.07;86.19
42603;BME280;28233;55.748;48.752;2023-02-22T01:15:18;97000.53;;;-12.07;86.31
42603;BME280;28233;55.748;48.752;2023-02-22T01:17:24;97002.38;;;-12.07;86.76
42603;BME280;28233;55.748;48.752;2023-02-22T01:19:27;97007.44;;;-12.06;86.75
42603;BME280;28233;55.748;48.752;2023-02-22T01:21:30;97003.16;;;-12.07;86.80
42603;BME280;28233;55.748;48.752;2023-02-22T01:23:33;97015.38;;;-12.06;87.11
42603;BME280;28233;55.748;48.752;2023-02-22T01:25:35;97010.53;;;-12.09;86.76
42603;BME280;28233;55.748;48.752;2023-02-22T01:27:38;97008.38;;;-12.12;86.91
42603;BME280;28233;55.748;48.752;2023-02-22T01:29:40;97002.28;;;-12.13;86.73
42603;BME280;28233;55.748;48.752;2023-02-22T01:31:52;97003.66;;;-12.10;86.97
42603;BME280;28233;55.748;48.752;2023-02-22T01:33:55;97007.31;;;-12.11;86.72
42603;BME280;28233;55.748;48.752;2023-02-22T01:35:58;97004.69;;;-12.11;86.72
42603;BME280;28233;55.748;48.752;2023-02-22T01:38:01;97004.13;;;-12.13;86.74
42603;BME280;28233;55.748;48.752;2023-02-22T01:40:06;97007.59;;;-12.13;86.90
42603;BME280;28233;55.748;48.752;2023-02-22T01:42:09;96995.63;;;-12.15;86.54
42603;BME280;28233;55.748;48.752;2023-02-22T01:46:29;97007.25;;;-12.16;86.58
42603;BME280;28233;55.748;48.752;2023-02-22T01:48:38;97007.50;;;-12.18;86.92
42603;BME280;28233;55.748;48.752;2023-02-22T01:50:49;97008.78;;;-12.20;86.85
42603;BME280;28233;55.748;48.752;2023-02-22T01:52:55;97017.16;;;-12.23;86.83
42603;BME280;28233;55.748;48.752;2023-02-22T01:54:58;97004.41;;;-12.26;86.71
42603;BME280;28233;55.748;48.752;2023-02-22T01:57:05;97017.44;;;-12.25;86.94
42603;BME280;28233;55.748;48.752;2023-02-22T01:59:10;97017.44;;;-12.25;87.01
42603;BME280;28233;55.748;48.752;2023-02-22T02:01:14;97011.09;;;-12.24;87.20
42603;BME280;28233;55.748;48.752;2023-02-22T02:03:24;97021.44;;;-12.22;87.13
42603;BME280;28233;55.748;48.752;2023-02-22T02:05:30;97028.91;;;-12.19;87.67
42603;BME280;28233;55.748;48.752;2023-02-22T02:07:36;97028.19;;;-12.15;88.04
42603;BME280;28233;55.748;48.752;2023-02-22T02:09:59;97022.66;;;-12.13;87.50
42603;BME280;28233;55.748;48.752;2023-02-22T02:12:07;97030.13;;;-12.10;87.81
42603;BME280;28233;55.748;48.752;2023-02-22T02:14:12;97025.78;;;-12.16;87.51
42603;BME280;28233;55.748;48.752;2023-02-22T02:16:26;97034.41;;;-12.21;86.87
42603;BME280;28233;55.748;48.752;2023-02-22T02:18:36;97038.03;;;-12.27;86.33
42603;BME280;28233;55.748;48.752;2023-02-22T02:25:28;97034.25;;;-12.31;86.82
42603;BME280;28233;55.748;48.752;2023-02-22T02:42:39;97053.19;;;-11.94;87.44
42603;BME280;28233;55.748;48.752;2023-02-22T02:45:08;97055.59;;;-11.92;87.17
42603;BME280;28233;55.748;48.752;2023-02-22T02:47:18;97051.69;;;-11.89;87.50
42603;BME280;28233;55.748;48.752;2023-02-22T02:49:28;97059.63;;;-11.89;86.90
42603;BME280;28233;55.748;48.752;2023-02-22T02:51:36;97053.25;;;-11.88;86.54
42603;BME280;28233;55.748;48.752;2023-02-22T02:53:42;97053.50;;;-11.90;86.18
42603;BME280;28233;55.748;48.752;2023-02-22T02:55:46;97060.63;;;-11.90;86.16
42603;BME280;28233;55.748;48.752;2023-02-22T02:57:49;97063.84;;;-11.88;86.07
42603;BME280;28233;55.748;48.752;2023-02-22T02:59:52;97056.63;;;-11.93;86.05
42603;BME280;28233;55.748;48.752;2023-02-22T03:04:20;97055.03;;;-11.94;85.87
42603;BME280;28233;55.748;48.752;2023-02-22T03:11:20;97058.41;;;-11.99;84.99
42603;BME280;28233;55.748;48.752;2023-02-22T03:13:49;97057.13;;;-11.96;85.06
42603;BME280;28233;55.748;48.752;2023-02-22T03:16:04;97061.44;;;-11.90;85.54
42603;BME280;28233;55.748;48.752;2023-02-22T03:18:23;97057.03;;;-11.84;85.68
42603;BME280;28233;55.748;48.752;2023-02-22T03:20:52;97050.44;;;-11.82;85.54
42603;BME280;28233;55.748;48.752;2023-02-22T03:23:04;97049.06;;;-11.84;85.88
42603;BME280;28233;55.748;48.752;2023-02-22T03:25:16;97059.34;;;-11.71;85.99
42603;BME280;28233;55.748;48.752;2023-02-22T03:29:42;97047.72;;;-11.70;85.92
42603;BME280;28233;55.748;48.752;2023-02-22T03:31:53;97058.97;;;-11.63;85.82
42603;BME280;28233;55.748;48.752;2023-02-22T03:34:10;97054.72;;;-11.64;86.09
42603;BME280;28233;55.748;48.752;2023-02-22T03:36:17;97056.41;;;-11.58;86.00
42603;BME280;28233;55.748;48.752;2023-02-22T03:38:23;97063.78;;;-11.60;86.12
42603;BME280;28233;55.748;48.752;2023-02-22T03:40:34;97065.31;;;-11.64;85.33
42603;BME280;28233;55.748;48.752;2023-02-22T03:42:40;97061.28;;;-11.66;85.42
42603;BME280;28233;55.748;48.752;2023-02-22T03:44:47;97063.38;;;-11.68;85.27
42603;BME280;28233;55.748;48.752;2023-02-22T03:46:53;97066.97;;;-11.75;84.96
42603;BME280;28233;55.748;48.752;2023-02-22T03:49:22;97068.75;;;-11.80;85.09
42603;BME280;28233;55.748;48.752;2023-02-22T03:51:26;97074.22;;;-11.87;84.88
42603;BME280;28233;55.748;48.752;2023-02-22T03:53:31;97069.06;;;-11.94;84.59
42603;BME280;28233;55.748;48.752;2023-02-22T03:55:34;97079.81;;;-12.00;83.86
42603;BME280;28233;55.748;48.752;2023-02-22T03:57:40;97079.63;;;-12.10;83.87
42603;BME280;28233;55.748;48.752;2023-02-22T03:59:44;97081.75;;;-12.24;83.52
42603;BME280;28233;55.748;48.752;2023-02-22T04:01:47;97072.34;;;-12.32;83.92
42603;BME280;28233;55.748;48.752;2023-02-22T04:03:52;97080.31;;;-12.44;83.79
42603;BME280;28233;55.748;48.752;2023-02-22T04:05:54;97080.44;;;-12.50;83.58
42603;BME280;28233;55.748;48.752;2023-02-22T04:07:57;97081.13;;;-12.55;84.18
42603;BME280;28233;55.748;48.752;2023-02-22T04:10:00;97078.72;;;-12.57;84.44
42603;BME280;28233;55.748;48.752;2023-02-22T04:12:04;97084.22;;;-12.58;85.21
42603;BME280;28233;55.748;48.752;2023-02-22T04:14:07;97091.81;;;-12.50;85.63
42603;BME280;28233;55.748;48.752;2023-02-22T04:16:10;97084.47;;;-12.48;85.60
42603;BME280;28233;55.748;48.752;2023-02-22T04:18:13;97085.03;;;-12.46;85.63
42603;BME280;28233;55.748;48.752;2023-02-22T04:20:15;97085.84;;;-12.45;86.31
42603;BME280;28233;55.748;48.752;2023-02-22T04:22:21;97094.91;;;-12.41;86.35
42603;BME280;28233;55.748;48.752;2023-02-22T04:24:24;97088.66;;;-12.35;86.51
42603;BME280;28233;55.748;48.752;2023-02-22T04:26:26;97084.75;;;-12.32;86.42
42603;BME280;28233;55.748;48.752;2023-02-22T04:28:29;97082.66;;;-12.30;86.42
42603;BME280;28233;55.748;48.752;2023-02-22T04:30:31;97098.06;;;-12.27;85.86
42603;BME280;28233;55.748;48.752;2023-02-22T04:32:34;97086.25;;;-12.25;85.89
42603;BME280;28233;55.748;48.752;2023-02-22T04:34:37;97092.91;;;-12.22;85.50
42603;BME280;28233;55.748;48.752;2023-02-22T04:36:39;97089.44;;;-12.23;85.41
42603;BME280;28233;55.748;48.752;2023-02-22T04:38:43;97093.91;;;-12.23;85.56
42603;BME280;28233;55.748;48.752;2023-02-22T04:40:46;97090.00;;;-12.21;85.59
42603;BME280;28233;55.748;48.752;2023-02-22T04:42:48;97091.38;;;-12.18;85.42
42603;BME280;28233;55.748;48.752;2023-02-22T04:44:51;97093.00;;;-12.17;85.78
42603;BME280;28233;55.748;48.752;2023-02-22T04:46:54;97095.03;;;-12.07;85.70
42603;BME280;28233;55.748;48.752;2023-02-22T04:48:57;97098.47;;;-12.07;85.25
42603;BME280;28233;55.748;48.752;2023-02-22T04:51:00;97101.47;;;-12.03;85.52
42603;BME280;28233;55.748;48.752;2023-02-22T04:53:03;97097.75;;;-12.02;85.28
42603;BME280;28233;55.748;48.752;2023-02-22T04:55:06;97099.94;;;-11.99;85.10
42603;BME280;28233;55.748;48.752;2023-02-22T04:57:09;97087.53;;;-11.99;84.95
42603;BME280;28233;55.748;48.752;2023-02-22T04:59:11;97093.38;;;-11.97;84.49
42603;BME280;28233;55.748;48.752;2023-02-22T05:01:14;97101.88;;;-11.95;84.67
42603;BME280;28233;55.748;48.752;2023-02-22T05:03:18;97106.72;;;-11.92;84.86
42603;BME280;28233;55.748;48.752;2023-02-22T05:05:21;97105.44;;;-11.89;84.41
42603;BME280;28233;55.748;48.752;2023-02-22T05:07:24;97104.13;;;-11.86;84.24
42603;BME280;28233;55.748;48.752;2023-02-22T05:09:26;97106.00;;;-11.87;83.89
42603;BME280;28233;55.748;48.752;2023-02-22T05:11:29;97100.72;;;-11.87;83.66
42603;BME280;28233;55.748;48.752;2023-02-22T05:13:31;97103.06;;;-11.85;83.89
42603;BME280;28233;55.748;48.752;2023-02-22T05:15:34;97098.13;;;-11.82;83.96
42603;BME280;28233;55.748;48.752;2023-02-22T05:17:37;97096.34;;;-11.76;84.35
42603;BME280;28233;55.748;48.752;2023-02-22T05:19:50;97103.84;;;-11.73;84.05
42603;BME280;28233;55.748;48.752;2023-02-22T05:21:52;97103.66;;;-11.66;83.62
42603;BME280;28233;55.748;48.752;2023-02-22T05:23:55;97103.66;;;-11.66;83.62
42603;BME280;28233;55.748;48.752;2023-02-22T05:25:58;97104.00;;;-11.63;83.32
42603;BME280;28233;55.748;48.752;2023-02-22T05:28:04;97104.00;;;-11.63;82.90
42603;BME280;28233;55.748;48.752;2023-02-22T05:30:09;97113.88;;;-11.58;82.73
42603;BME280;28233;55.748;48.752;2023-02-22T05:32:12;97107.53;;;-11.57;82.38
42603;BME280;28233;55.748;48.752;2023-02-22T05:34:15;97102.50;;;-11.59;81.84
42603;BME280;28233;55.748;48.752;2023-02-22T05:36:18;97103.28;;;-11.58;82.10
42603;BME280;28233;55.748;48.752;2023-02-22T05:38:20;97107.88;;;-11.54;82.51
42603;BME280;28233;55.748;48.752;2023-02-22T05:40:25;97108.53;;;-11.46;82.18
42603;BME280;28233;55.748;48.752;2023-02-22T05:42:27;97108.13;;;-11.38;82.37
42603;BME280;28233;55.748;48.752;2023-02-22T05:44:30;97103.22;;;-11.30;82.15
42603;BME280;28233;55.748;48.752;2023-02-22T05:46:32;97105.56;;;-11.16;82.17
42603;BME280;28233;55.748;48.752;2023-02-22T05:48:35;97102.09;;;-11.00;82.63
42603;BME280;28233;55.748;48.752;2023-02-22T05:50:37;97097.25;;;-10.86;82.21
42603;BME280;28233;55.748;48.752;2023-02-22T05:52:40;97097.41;;;-10.76;81.79
42603;BME280;28233;55.748;48.752;2023-02-22T05:54:43;97093.50;;;-10.68;81.17
42603;BME280;28233;55.748;48.752;2023-02-22T05:56:45;97099.44;;;-10.61;80.54
42603;BME280;28233;55.748;48.752;2023-02-22T05:58:49;97104.28;;;-10.58;79.78
42603;BME280;28233;55.748;48.752;2023-02-22T06:00:52;97105.72;;;-10.50;79.74
42603;BME280;28233;55.748;48.752;2023-02-22T06:04:57;97105.72;;;-10.28;79.70
42603;BME280;28233;55.748;48.752;2023-02-22T06:07:00;97104.75;;;-10.17;79.98
42603;BME280;28233;55.748;48.752;2023-02-22T06:09:02;97100.44;;;-10.01;79.90
42603;BME280;28233;55.748;48.752;2023-02-22T06:11:05;97101.41;;;-9.85;79.88
42603;BME280;28233;55.748;48.752;2023-02-22T06:13:08;97114.28;;;-9.72;79.66
42603;BME280;28233;55.748;48.752;2023-02-22T06:15:11;97106.69;;;-9.58;78.77
42603;BME280;28233;55.748;48.752;2023-02-22T06:17:14;97108.91;;;-9.50;78.51
42603;BME280;28233;55.748;48.752;2023-02-22T06:19:16;97111.66;;;-9.40;77.38
42603;BME280;28233;55.748;48.752;2023-02-22T06:21:19;97113.84;;;-9.31;77.83
42603;BME280;28233;55.748;48.752;2023-02-22T06:23:23;97114.44;;;-9.24;77.71
42603;BME280;28233;55.748;48.752;2023-02-22T06:25:29;97113.44;;;-9.18;76.57
42603;BME280;28233;55.748;48.752;2023-02-22T06:27:33;97115.09;;;-9.12;77.24
42603;BME280;28233;55.748;48.752;2023-02-22T06:29:35;97114.84;;;-9.05;76.97
42603;BME280;28233;55.748;48.752;2023-02-22T06:31:38;97126.88;;;-9.03;75.36
42603;BME280;28233;55.748;48.752;2023-02-22T06:33:41;97130.00;;;-9.11;74.58
42603;BME280;28233;55.748;48.752;2023-02-22T06:35:43;97123.34;;;-9.08;74.48
42603;BME280;28233;55.748;48.752;2023-02-22T06:37:46;97125.81;;;-9.02;75.46
42603;BME280;28233;55.748;48.752;2023-02-22T06:39:49;97128.78;;;-8.98;74.57
42603;BME280;28233;55.748;48.752;2023-02-22T06:41:52;97133.22;;;-9.04;74.40
42603;BME280;28233;55.748;48.752;2023-02-22T06:43:56;97125.81;;;-9.02;74.39
42603;BME280;28233;55.748;48.752;2023-02-22T06:45:58;97123.88;;;-9.11;74.01
42603;BME280;28233;55.748;48.752;2023-02-22T06:48:01;97129.16;;;-9.17;74.53
42603;BME280;28233;55.748;48.752;2023-02-22T06:50:04;97122.19;;;-9.23;74.40
42603;BME280;28233;55.748;48.752;2023-02-22T06:52:08;97117.63;;;-9.27;74.00
42603;BME280;28233;55.748;48.752;2023-02-22T06:54:12;97127.47;;;-9.28;74.34
42603;BME280;28233;55.748;48.752;2023-02-22T06:56:15;97124.31;;;-9.20;74.03
42603;BME280;28233;55.748;48.752;2023-02-22T06:58:17;97121.78;;;-9.04;73.88
42603;BME280;28233;55.748;48.752;2023-02-22T07:00:22;97125.84;;;-8.97;73.68
42603;BME280;28233;55.748;48.752;2023-02-22T07:02:26;97130.91;;;-8.95;72.90
42603;BME280;28233;55.748;48.752;2023-02-22T07:04:29;97117.84;;;-8.97;72.83
42603;BME280;28233;55.748;48.752;2023-02-22T07:06:31;97122.66;;;-8.94;72.87
42603;BME280;28233;55.748;48.752;2023-02-22T07:08:34;97133.03;;;-8.97;73.01
42603;BME280;28233;55.748;48.752;2023-02-22T07:10:37;97127.16;;;-8.99;73.07
42603;BME280;28233;55.748;48.752;2023-02-22T07:12:39;97128.41;;;-9.12;72.48
42603;BME280;28233;55.748;48.752;2023-02-22T07:14:42;97122.94;;;-9.27;72.52
42603;BME280;28233;55.748;48.752;2023-02-22T07:16:45;97128.13;;;-9.43;72.34
42603;BME280;28233;55.748;48.752;2023-02-22T07:18:47;97127.56;;;-9.45;73.35
42603;BME280;28233;55.748;48.752;2023-02-22T07:20:50;97127.03;;;-9.47;73.19
42603;BME280;28233;55.748;48.752;2023-02-22T07:22:52;97128.13;;;-9.43;73.96
42603;BME280;28233;55.748;48.752;2023-02-22T07:24:55;97133.94;;;-9.46;73.80
42603;BME280;28233;55.748;48.752;2023-02-22T07:26:59;97128.56;;;-9.51;73.77
42603;BME280;28233;55.748;48.752;2023-02-22T07:29:02;97127.41;;;-9.60;73.21
42603;BME280;28233;55.748;48.752;2023-02-22T07:31:05;97119.00;;;-9.52;74.06
42603;BME280;28233;55.748;48.752;2023-02-22T07:33:10;97127.78;;;-9.51;73.84
42603;BME280;28233;55.748;48.752;2023-02-22T07:35:35;97129.69;;;-9.47;74.61
42603;BME280;28233;55.748;48.752;2023-02-22T07:37:37;97133.69;;;-9.44;73.77
42603;BME280;28233;55.748;48.752;2023-02-22T07:39:40;97139.56;;;-9.42;73.63
42603;BME280;28233;55.748;48.752;2023-02-22T07:41:45;97128.28;;;-9.54;73.03
42603;BME280;28233;55.748;48.752;2023-02-22T07:43:47;97128.31;;;-9.49;74.27
42603;BME280;28233;55.748;48.752;2023-02-22T07:45:52;97131.03;;;-9.44;74.28
42603;BME280;28233;55.748;48.752;2023-02-22T07:47:56;97135.34;;;-9.38;74.38
42603;BME280;28233;55.748;48.752;2023-02-22T07:49:58;97132.47;;;-9.31;74.40
42603;BME280;28233;55.748;48.752;2023-02-22T07:52:01;97124.00;;;-9.28;74.62
42603;BME280;28233;55.748;48.752;2023-02-22T07:54:04;97128.06;;;-9.21;74.43
42603;BME280;28233;55.748;48.752;2023-02-22T07:56:06;97133.97;;;-9.13;74.19
42603;BME280;28233;55.748;48.752;2023-02-22T07:58:13;97140.66;;;-9.06;74.30
42603;BME280;28233;55.748;48.752;2023-02-22T08:00:25;97142.31;;;-9.00;74.08
42603;BME280;28233;55.748;48.752;2023-02-22T08:02:28;97131.38;;;-9.03;72.83
42603;BME280;28233;55.748;48.752;2023-02-22T08:04:31;97137.94;;;-9.16;72.48
42603;BME280;28233;55.748;48.752;2023-02-22T08:06:33;97142.28;;;-9.05;73.74
42603;BME280;28233;55.748;48.752;2023-02-22T08:08:36;97142.06;;;-8.98;73.95
42603;BME280;28233;55.748;48.752;2023-02-22T08:10:39;97150.66;;;-8.91;73.71
42603;BME280;28233;55.748;48.752;2023-02-22T08:12:41;97144.28;;;-8.85;73.91
42603;BME280;28233;55.748;48.752;2023-02-22T08:14:44;97146.66;;;-8.88;73.43
42603;BME280;28233;55.748;48.752;2023-02-22T08:16:47;97141.00;;;-8.97;73.44
42603;BME280;28233;55.748;48.752;2023-02-22T08:18:49;97134.13;;;-8.93;73.99
42603;BME280;28233;55.748;48.752;2023-02-22T08:20:53;97147.34;;;-9.03;73.03
42603;BME280;28233;55.748;48.752;2023-02-22T08:22:57;97146.50;;;-9.09;73.59
42603;BME280;28233;55.748;48.752;2023-02-22T08:25:01;97142.25;;;-9.10;73.94
42603;BME280;28233;55.748;48.752;2023-02-22T08:27:05;97139.28;;;-9.13;73.59
42603;BME280;28233;55.748;48.752;2023-02-22T08:29:08;97135.81;;;-9.14;74.00
42603;BME280;28233;55.748;48.752;2023-02-22T08:31:12;97138.69;;;-9.21;73.48
42603;BME280;28233;55.748;48.752;2023-02-22T08:33:16;97130.88;;;-9.32;74.08
42603;BME280;28233;55.748;48.752;2023-02-22T08:35:22;97134.03;;;-9.36;73.74
42603;BME280;28233;55.748;48.752;2023-02-22T08:37:26;97137.47;;;-9.40;73.99
42603;BME280;28233;55.748;48.752;2023-02-22T08:39:29;97135.88;;;-9.36;74.69
42603;BME280;28233;55.748;48.752;2023-02-22T08:41:33;97124.56;;;-9.26;74.40
42603;BME280;28233;55.748;48.752;2023-02-22T08:43:35;97126.19;;;-9.20;74.47
42603;BME280;28233;55.748;48.752;2023-02-22T08:45:40;97129.47;;;-9.08;74.93
42603;BME280;28233;55.748;48.752;2023-02-22T08:47:46;97126.59;;;-9.01;74.58
42603;BME280;28233;55.748;48.752;2023-02-22T08:49:49;97124.56;;;-8.89;74.43
42603;BME280;28233;55.748;48.752;2023-02-22T08:51:52;97132.09;;;-8.81;74.17
42603;BME280;28233;55.748;48.752;2023-02-22T08:53:54;97126.06;;;-8.66;74.36
42603;BME280;28233;55.748;48.752;2023-02-22T08:55:57;97125.28;;;-8.61;74.04
42603;BME280;28233;55.748;48.752;2023-02-22T08:58:00;97122.19;;;-8.48;73.99
42603;BME280;28233;55.748;48.752;2023-02-22T09:00:05;97122.22;;;-8.33;73.65
42603;BME280;28233;55.748;48.752;2023-02-22T09:02:14;97119.38;;;-8.16;73.08
42603;BME280;28233;55.748;48.752;2023-02-22T09:04:17;97118.06;;;-8.13;73.15
42603;BME280;28233;55.748;48.752;2023-02-22T09:06:20;97114.09;;;-8.00;73.15
42603;BME280;28233;55.748;48.752;2023-02-22T09:08:22;97109.63;;;-7.90;72.87
42603;BME280;28233;55.748;48.752;2023-02-22T09:10:29;97114.19;;;-7.80;71.68
42603;BME280;28233;55.748;48.752;2023-02-22T09:12:32;97108.31;;;-7.72;71.98
42603;BME280;28233;55.748;48.752;2023-02-22T09:14:34;97102.50;;;-7.58;72.26
42603;BME280;28233;55.748;48.752;2023-02-22T09:16:37;97107.31;;;-7.45;71.51
42603;BME280;28233;55.748;48.752;2023-02-22T09:18:39;97105.16;;;-7.48;70.88
42603;BME280;28233;55.748;48.752;2023-02-22T09:20:45;97096.38;;;-7.44;71.04
42603;BME280;28233;55.748;48.752;2023-02-22T09:22:49;97111.03;;;-7.41;70.48
42603;BME280;28233;55.748;48.752;2023-02-22T09:24:52;97112.13;;;-7.32;70.77
42603;BME280;28233;55.748;48.752;2023-02-22T09:26:56;97107.63;;;-7.26;70.74
42603;BME280;28233;55.748;48.752;2023-02-22T09:29:00;97111.31;;;-7.22;70.96
42603;BME280;28233;55.748;48.752;2023-02-22T09:31:03;97118.53;;;-7.17;70.30
42603;BME280;28233;55.748;48.752;2023-02-22T09:33:12;97114.28;;;-7.24;70.00
42603;BME280;28233;55.748;48.752;2023-02-22T09:35:16;97109.19;;;-7.25;70.05
42603;BME280;28233;55.748;48.752;2023-02-22T09:37:19;97102.81;;;-7.14;70.22
42603;BME280;28233;55.748;48.752;2023-02-22T09:39:22;97111.34;;;-7.07;70.65
42603;BME280;28233;55.748;48.752;2023-02-22T09:41:27;97122.56;;;-7.05;70.30
42603;BME280;28233;55.748;48.752;2023-02-22T09:48:15;97123.91;;;-7.02;70.29
42603;BME280;28233;55.748;48.752;2023-02-22T09:50:27;97125.75;;;-6.82;70.49
42603;BME280;28233;55.748;48.752;2023-02-22T09:52:35;97118.00;;;-6.78;70.06
42603;BME280;28233;55.748;48.752;2023-02-22T09:54:44;97121.47;;;-6.83;69.91
42603;BME280;28233;55.748;48.752;2023-02-22T09:56:55;97124.44;;;-6.74;68.94
42603;BME280;28233;55.748;48.752;2023-02-22T09:59:00;97131.38;;;-6.84;68.54
42603;BME280;28233;55.748;48.752;2023-02-22T10:01:33;97132.44;;;-7.00;68.96
42603;BME280;28233;55.748;48.752;2023-02-22T10:03:50;97128.72;;;-6.89;70.30
42603;BME280;28233;55.748;48.752;2023-02-22T10:06:03;97130.03;;;-6.81;69.44
42603;BME280;28233;55.748;48.752;2023-02-22T10:08:13;97125.75;;;-6.72;68.17
42603;BME280;28233;55.748;48.752;2023-02-22T10:10:22;97135.09;;;-6.64;69.72
42603;BME280;28233;55.748;48.752;2023-02-22T10:15:07;97129.94;;;-6.35;68.58
42603;BME280;28233;55.748;48.752;2023-02-22T10:20:01;97134.19;;;-6.13;68.82
42603;BME280;28233;55.748;48.752;2023-02-22T10:26:50;97139.22;;;-6.02;67.49
42603;BME280;28233;55.748;48.752;2023-02-22T10:29:03;97143.69;;;-5.92;66.54
42603;BME280;28233;55.748;48.752;2023-02-22T10:31:20;97138.63;;;-5.93;67.28
42603;BME280;28233;55.748;48.752;2023-02-22T10:33:39;97138.06;;;-5.85;67.07
42603;BME280;28233;55.748;48.752;2023-02-22T10:35:44;97142.03;;;-5.78;67.67
42603;BME280;28233;55.748;48.752;2023-02-22T10:37:53;97136.41;;;-5.81;66.62
42603;BME280;28233;55.748;48.752;2023-02-22T10:40:19;97142.84;;;-5.77;67.34
42603;BME280;28233;55.748;48.752;2023-02-22T10:42:25;97146.84;;;-5.80;67.21
42603;BME280;28233;55.748;48.752;2023-02-22T10:44:29;97141.25;;;-5.83;67.31
42603;BME280;28233;55.748;48.752;2023-02-22T10:46:32;97149.53;;;-5.80;66.41
42603;BME280;28233;55.748;48.752;2023-02-22T10:48:37;97146.81;;;-5.75;66.06
42603;BME280;28233;55.748;48.752;2023-02-22T10:50:43;97144.69;;;-5.72;66.98
42603;BME280;28233;55.748;48.752;2023-02-22T10:52:48;97146.81;;;-5.75;67.42
42603;BME280;28233;55.748;48.752;2023-02-22T10:54:54;97141.69;;;-5.61;66.72
42603;BME280;28233;55.748;48.752;2023-02-22T10:57:20;97152.72;;;-5.72;66.85
42603;BME280;28233;55.748;48.752;2023-02-22T10:59:35;97143.84;;;-5.63;66.99
42603;BME280;28233;55.748;48.752;2023-02-22T11:01:38;97149.41;;;-5.54;66.58
42603;BME280;28233;55.748;48.752;2023-02-22T11:03:43;97147.78;;;-5.50;66.27
42603;BME280;28233;55.748;48.752;2023-02-22T11:05:47;97146.75;;;-5.54;66.48
42603;BME280;28233;55.748;48.752;2023-02-22T11:07:50;97153.50;;;-5.72;65.98
42603;BME280;28233;55.748;48.752;2023-02-22T11:09:57;97153.47;;;-5.67;66.55
42603;BME280;28233;55.748;48.752;2023-02-22T11:12:10;97147.31;;;-5.62;66.52
42603;BME280;28233;55.748;48.752;2023-02-22T11:14:28;97149.78;;;-5.71;66.74
42603;BME280;28233;55.748;48.752;2023-02-22T11:18:43;97161.81;;;-5.79;66.18
42603;BME280;28233;55.748;48.752;2023-02-22T11:20:58;97152.25;;;-5.90;67.10
42603;BME280;28233;55.748;48.752;2023-02-22T11:23:06;97157.63;;;-5.95;67.31
42603;BME280;28233;55.748;48.752;2023-02-22T11:25:19;97156.25;;;-5.87;67.33
42603;BME280;28233;55.748;48.752;2023-02-22T11:28:05;97168.00;;;-5.88;67.25
42603;BME280;28233;55.748;48.752;2023-02-22T11:29:58;97160.59;;;-6.07;67.43
42603;BME280;28233;55.748;48.752;2023-02-22T11:32:14;97164.13;;;-6.17;68.11
42603;BME280;28233;55.748;48.752;2023-02-22T11:34:31;97170.56;;;-6.33;68.35
42603;BME280;28233;55.748;48.752;2023-02-22T11:36:41;97167.34;;;-6.35;68.69
42603;BME280;28233;55.748;48.752;2023-02-22T11:38:54;97176.72;;;-6.48;68.89
42603;BME280;28233;55.748;48.752;2023-02-22T11:43:18;97183.16;;;-6.44;70.04
42603;BME280;28233;55.748;48.752;2023-02-22T11:45:21;97186.88;;;-6.45;69.73